Terminal Aerodrome Forecast
Issued by NWS

Home | Current Version | Previous Version | Text Only | Print | Product List | Glossary On
Versions: 1 2 3 4 5 6 7 8 9 10 11 12 13 14 15 16 17 18 19 20 21 22
599
FTAK31 PAJN 101813 AAA
TAFAJN
TAF AMD
PAJN 101813Z 1018/1118 VRB06KT P6SM -RA FEW004 SCT012 OVC035
      WS020/11020KT
      TEMPO 1018/1022 3SM -RA BR SCT004 OVC010
     FM110900 11012G20KT 4SM -RA BR FEW005 BKN025 OVC040
      WS020/16025KT
     FM111200 12015KT 6SM -SHRA FEW005 BKN035 OVC050=

USA.gov is the U.S. government's official web portal to all federal, state and local government web resources and services.